Portada
METAR-TAF:

METAR-TAF

Aeropuertos :

Ginebra, Suiza

Aeropuerto Internacional de Ginebra

latitud: 46-15N, longitud: 006-08E, altitud: 420 m

Observación

El informe se hizo hace 10 minutos, a las 09:50 UTC
Viento 9 kt del norte-noreste
Temperatura 0°C
Humedad 74%
Presión 1011 hPa
Visibilidad: 7000 m
Cielo cubierto a una altura de 2000 ft

METAR: LSGG 240950Z 02009KT 7000 OVC020 00/M04 Q1011 NOSIG

Hora: 11:00 (10:00 UTC)

Pronóstico

El informe se hizo hace 1 hora y 35 minutos, a las 08:25 UTC
Pronóstico válido del 24 a las 09 UTC al 25 a las 15 UTC
Viento 15 kt del norte-noreste
Visibilidad: 7000 m
Cielo cubierto a una altura de 2000 ft
Evolucionando progresivamente
del 25 a las 12 UTC al 25 a las 15 UTC
Viento 20 kt del noreste con ráfagas de 35 kt

TAF: LSGG 240825Z 2409/2515 03015KT 7000 OVC020 TX02/2415Z TNM02/2505Z TX01/2515Z BECMG 2512/2515 04020G35KT

Observaciones y pronósticos meteorológicos de más de 4000 aeropuertos (mensajes METAR y TAF).

Los puntos amarillos y rojos representan las estaciones disponibles.

Ponga el ratón en el punto deseado para ver el nombre de la estación.

Haga clic para ver las observaciones y los pronósticos meteorológicos.

Para cambiar el mapa : haga clic en los botones verdes con una cruz de color negro para hacer un zoom, en el botón verde con un guión para alejar o en las flechas verdes para mapas adyacentes.


METAR-TAF: